Time;durP1;ratioP1;P1;durP2;ratioP2;P2;SDS_P1;SDS_P2;PMS_P1;PMS_P2;Temp;Humidity;BMP_temperature;BMP_pressure;BME280_temperature;BME280_humidity;BME280_pressure;Samples;Min_cycle;Max_cycle;Signal;HPM_P1;HPM_P2
2021/04/26 00:01:47;;;;;;;5.97;5.17;;;;;;;5.81;100.00;94792.91;4993348;28;20204;-85
2021/04/26 00:04:14;;;;;;;6.67;6.03;;;;;;;5.70;100.00;94808.91;4993590;28;20204;-86
2021/04/26 00:06:41;;;;;;;10.20;7.93;;;;;;;5.55;100.00;94811.38;4993491;28;20228;-86
2021/04/26 00:09:08;;;;;;;6.50;4.97;;;;;;;5.63;100.00;94771.44;4993888;28;20290;-87
2021/04/26 00:11:35;;;;;;;5.53;4.73;;;;;;;5.55;100.00;94794.91;4993642;28;20295;-84
2021/04/26 00:14:03;;;;;;;5.80;4.47;;;;;;;5.28;100.00;94763.00;4993044;28;20681;-86
2021/04/26 00:16:30;;;;;;;4.33;3.80;;;;;;;5.37;100.00;94709.91;4993406;28;20701;-86
2021/04/26 00:18:57;;;;;;;5.50;5.00;;;;;;;5.40;100.00;94719.19;4993750;28;20231;-86
2021/04/26 00:21:24;;;;;;;5.27;4.77;;;;;;;5.34;100.00;94701.63;4993082;28;20208;-86
2021/04/26 00:23:51;;;;;;;5.83;4.53;;;;;;;5.50;100.00;94685.94;4993624;28;20586;-86
2021/04/26 00:26:18;;;;;;;6.20;4.93;;;;;;;5.40;100.00;94717.41;4993518;28;20314;-86
2021/04/26 00:28:45;;;;;;;5.13;4.63;;;;;;;5.50;100.00;94712.00;4993400;28;20740;-86
2021/04/26 00:31:13;;;;;;;5.53;4.50;;;;;;;5.29;100.00;94709.09;4993327;28;20614;-85
2021/04/26 00:33:40;;;;;;;5.93;4.30;;;;;;;5.43;100.00;94671.94;4993254;28;20290;-87
2021/04/26 00:36:07;;;;;;;5.50;4.60;;;;;;;5.36;100.00;94699.66;4993421;28;20204;-86
2021/04/26 00:38:34;;;;;;;6.87;4.37;;;;;;;5.27;100.00;94701.47;4993537;28;20204;-86
2021/04/26 00:41:01;;;;;;;4.90;3.83;;;;;;;5.40;100.00;94711.38;4992918;28;20202;-86
2021/04/26 00:43:28;;;;;;;8.77;3.83;;;;;;;5.20;100.00;94721.34;4993376;28;20283;-86
2021/04/26 00:45:55;;;;;;;5.97;4.40;;;;;;;5.37;100.00;94704.72;4992983;28;20227;-86
2021/04/26 00:48:23;;;;;;;5.13;4.07;;;;;;;5.41;100.00;94726.03;4992961;28;20235;-86
2021/04/26 00:50:50;;;;;;;8.17;4.20;;;;;;;5.36;100.00;94768.19;4992977;28;20286;-86
2021/04/26 00:53:17;;;;;;;4.77;3.53;;;;;;;5.14;100.00;94782.69;4993003;28;20235;-85
2021/04/26 00:55:44;;;;;;;5.67;4.07;;;;;;;5.32;100.00;94753.06;4992975;28;20287;-87
2021/04/26 00:58:11;;;;;;;8.57;4.13;;;;;;;5.16;100.00;94772.09;4993292;28;20339;-87
2021/04/26 01:00:38;;;;;;;4.97;4.00;;;;;;;5.19;100.00;94740.53;4992956;28;20201;-87
2021/04/26 01:03:05;;;;;;;5.60;4.37;;;;;;;5.05;100.00;94728.16;4993106;28;20218;-86
2021/04/26 01:05:36;;;;;;;4.30;3.70;;;;;;;5.08;100.00;94714.81;4993038;28;20234;-87
2021/04/26 01:08:03;;;;;;;6.37;4.40;;;;;;;4.74;100.00;94760.00;4993435;28;20292;-85
2021/04/26 01:10:32;;;;;;;4.93;3.63;;;;;;;4.43;100.00;94694.72;4994743;28;20580;-87
2021/04/26 01:13:24;;;;;;;6.20;4.53;;;;;;;4.38;100.00;94587.75;4996500;28;20232;-87
2021/04/26 01:15:59;;;;;;;4.33;3.83;;;;;;;4.64;100.00;94605.78;4997140;28;20666;-87
2021/04/26 01:18:32;;;;;;;4.30;3.63;;;;;;;4.65;100.00;94620.44;4996554;28;20188;-87
2021/04/26 01:21:36;;;;;;;6.03;3.80;;;;;;;4.47;100.00;94631.00;4997083;28;20673;-87
2021/04/26 01:24:47;;;;;;;4.57;3.33;;;;;;;4.72;100.00;94558.97;4996524;28;20202;-87
2021/04/26 01:27:23;;;;;;;6.33;4.27;;;;;;;4.83;100.00;94602.88;4989669;28;20206;-81
2021/04/26 01:30:05;;;;;;;5.43;4.27;;;;;;;4.93;100.00;94607.91;4995806;28;20188;-82
2021/04/26 01:32:37;;;;;;;6.10;3.63;;;;;;;4.98;100.00;94609.03;4995702;28;20275;-84
2021/04/26 01:35:06;;;;;;;5.17;4.70;;;;;;;4.84;100.00;94598.47;4996018;28;20223;-84
2021/04/26 01:37:36;;;;;;;3.67;3.37;;;;;;;4.66;100.00;94591.66;4995199;28;20196;-83
2021/04/26 01:40:06;;;;;;;4.40;4.00;;;;;;;4.73;100.00;94573.59;4995515;28;20204;-84
2021/04/26 01:42:34;;;;;;;4.70;4.30;;;;;;;4.77;100.00;94588.72;4995267;28;20272;-84
2021/04/26 01:45:04;;;;;;;5.10;4.40;;;;;;;4.53;100.00;94589.53;4995435;28;20231;-84
2021/04/26 01:47:34;;;;;;;6.23;4.53;;;;;;;4.62;100.00;94540.09;4995042;28;20239;-84
2021/04/26 01:50:02;;;;;;;4.43;4.03;;;;;;;4.43;100.00;94546.44;4995591;28;20230;-83
2021/04/26 01:52:30;;;;;;;9.47;7.17;;;;;;;4.47;100.00;94543.38;4995231;28;20204;-84
2021/04/26 01:54:58;;;;;;;5.10;4.60;;;;;;;4.07;100.00;94597.94;4995176;28;20204;-84
2021/04/26 01:57:27;;;;;;;4.47;4.07;;;;;;;3.93;100.00;94527.41;4995016;28;20203;-84
2021/04/26 01:59:55;;;;;;;9.33;5.23;;;;;;;4.16;100.00;94448.78;4995513;28;20586;-84
2021/04/26 02:02:23;;;;;;;9.60;5.03;;;;;;;4.22;100.00;94440.31;4995303;28;20200;-84
2021/04/26 02:04:52;;;;;;;5.13;4.30;;;;;;;4.05;100.00;94429.94;4995131;28;20263;-84
2021/04/26 02:07:20;;;;;;;12.07;8.63;;;;;;;3.83;100.00;94398.59;4994930;28;20299;-83
2021/04/26 02:09:48;;;;;;;7.77;5.73;;;;;;;4.23;100.00;94314.53;4995333;28;20200;-83
2021/04/26 02:12:16;;;;;;;5.53;4.63;;;;;;;4.31;100.00;94331.91;4994767;28;20287;-83
2021/04/26 02:14:44;;;;;;;4.33;3.93;;;;;;;4.43;100.00;94307.94;4994972;28;20227;-83
2021/04/26 02:17:11;;;;;;;8.90;4.70;;;;;;;4.53;100.00;94333.75;4994903;28;20258;-83
2021/04/26 02:19:38;;;;;;;6.73;4.27;;;;;;;4.52;100.00;94351.16;4995020;28;20646;-83
2021/04/26 02:22:06;;;;;;;5.50;4.50;;;;;;;4.55;100.00;94347.41;4994003;28;20206;-83
2021/04/26 02:24:33;;;;;;;5.30;4.80;;;;;;;4.63;100.00;94312.75;4994893;28;20291;-84
2021/04/26 02:27:00;;;;;;;5.27;4.67;;;;;;;4.47;100.00;94308.44;4994660;28;20212;-83
2021/04/26 02:29:27;;;;;;;7.30;4.93;;;;;;;4.50;100.00;94295.91;4994966;28;20270;-83
2021/04/26 02:32:00;;;;;;;7.70;5.40;;;;;;;4.46;100.00;94292.00;4994554;28;20204;-83
2021/04/26 02:34:30;;;;;;;5.13;4.63;;;;;;;4.56;100.00;94249.38;4994854;28;20193;-84
2021/04/26 02:37:02;;;;;;;6.13;5.30;;;;;;;4.53;100.00;94208.88;4994650;28;20219;-83
2021/04/26 02:39:32;;;;;;;7.33;5.00;;;;;;;4.34;100.00;94230.16;4994942;28;20279;-84
2021/04/26 02:42:02;;;;;;;8.23;7.37;;;;;;;4.28;100.00;94273.22;4994698;28;20206;-84
2021/04/26 02:44:30;;;;;;;8.53;5.90;;;;;;;4.32;100.00;94273.69;4994505;28;20338;-84
2021/04/26 02:47:03;;;;;;;10.27;8.17;;;;;;;4.29;100.00;94272.25;4994160;28;20231;-83
2021/04/26 02:49:30;;;;;;;10.87;4.87;;;;;;;4.24;100.00;94306.56;4994414;28;20272;-84
2021/04/26 02:51:58;;;;;;;8.43;7.13;;;;;;;4.43;100.00;94299.31;4994129;28;20262;-83
2021/04/26 02:54:27;;;;;;;7.40;6.37;;;;;;;4.36;100.00;94317.41;4994205;28;20193;-84
2021/04/26 02:56:57;;;;;;;7.63;5.60;;;;;;;4.30;100.00;94302.50;4993847;28;20196;-83
2021/04/26 02:59:25;;;;;;;9.80;8.83;;;;;;;4.14;100.00;94294.72;4994206;28;20200;-83
2021/04/26 03:01:53;;;;;;;6.60;5.90;;;;;;;3.87;100.00;94255.16;4993663;28;20298;-82
2021/04/26 03:04:21;;;;;;;8.53;6.60;;;;;;;4.14;100.00;94155.16;4994022;28;20239;-84
2021/04/26 03:06:51;;;;;;;5.30;4.80;;;;;;;4.20;100.00;94156.25;4993722;28;20679;-83
2021/04/26 03:09:18;;;;;;;7.50;4.93;;;;;;;4.27;100.00;94121.59;4993970;28;20283;-83
2021/04/26 03:11:46;;;;;;;8.50;5.27;;;;;;;4.18;100.00;94096.63;4993610;28;20196;-83
2021/04/26 03:14:18;;;;;;;6.80;4.63;;;;;;;4.06;100.00;94095.41;4993568;28;20725;-83
2021/04/26 03:16:46;;;;;;;13.03;8.13;;;;;;;4.15;100.00;94059.75;4992599;28;20223;-84
2021/04/26 03:19:13;;;;;;;9.33;7.13;;;;;;;4.21;100.00;94033.88;4997759;28;20203;-82
2021/04/26 03:21:43;;;;;;;9.53;6.73;;;;;;;4.25;100.00;94040.34;5012105;28;20203;-82
2021/04/26 03:24:10;;;;;;;5.50;4.87;;;;;;;4.27;100.00;94080.00;5011866;28;20287;-83
2021/04/26 03:26:52;;;;;;;7.30;4.93;;;;;;;4.17;100.00;94121.00;5012070;28;20273;-83
2021/04/26 03:29:22;;;;;;;6.70;4.83;;;;;;;4.32;100.00;94102.88;5011876;28;20199;-83
2021/04/26 03:31:50;;;;;;;5.27;4.47;;;;;;;4.28;100.00;94140.59;5012047;28;20211;-83
2021/04/26 03:34:18;;;;;;;4.93;3.97;;;;;;;4.19;100.00;94158.06;5011689;28;20340;-83
2021/04/26 03:36:45;;;;;;;10.17;9.17;;;;;;;4.12;100.00;94159.72;5012163;28;20802;-83
2021/04/26 03:39:14;;;;;;;23.50;16.73;;;;;;;4.00;100.00;94146.28;5011725;28;20207;-82
2021/04/26 03:41:43;;;;;;;15.77;12.90;;;;;;;4.14;100.00;94120.53;5011990;28;20620;-83
2021/04/26 03:44:15;;;;;;;22.43;18.27;;;;;;;4.17;100.00;94122.81;5011571;28;20231;-83
2021/04/26 03:46:52;;;;;;;9.43;8.43;;;;;;;4.14;100.00;94146.53;5011502;28;20214;-82
2021/04/26 03:49:20;;;;;;;18.70;11.63;;;;;;;4.15;100.00;94148.16;5011709;28;20211;-83
2021/04/26 03:51:47;;;;;;;19.97;15.07;;;;;;;4.22;100.00;94157.69;5012007;28;20205;-83
2021/04/26 03:54:14;;;;;;;16.33;13.37;;;;;;;4.23;100.00;94151.53;5011489;28;20210;-84
2021/04/26 03:56:41;;;;;;;14.37;12.20;;;;;;;4.21;100.00;94163.06;5011567;28;20203;-84
2021/04/26 03:59:08;;;;;;;20.60;13.90;;;;;;;4.21;100.00;94142.28;5011218;28;20297;-84
2021/04/26 04:01:36;;;;;;;15.97;12.03;;;;;;;4.24;100.00;94144.53;5011346;28;20315;-83
2021/04/26 04:04:04;;;;;;;16.77;12.97;;;;;;;4.21;100.00;94152.69;5011342;28;20192;-84
2021/04/26 04:06:32;;;;;;;10.33;9.27;;;;;;;3.99;100.00;94149.88;5011935;28;20260;-84
2021/04/26 04:08:59;;;;;;;12.07;10.87;;;;;;;3.97;100.00;94104.22;5011766;28;20624;-84
2021/04/26 04:11:26;;;;;;;7.17;6.47;;;;;;;3.99;100.00;94053.69;5011181;28;20195;-84
2021/04/26 04:13:54;;;;;;;9.53;8.53;;;;;;;4.19;100.00;93999.47;5012001;28;20321;-84
2021/04/26 04:16:21;;;;;;;9.47;8.00;;;;;;;4.34;100.00;93962.28;5012951;28;20295;-84
2021/04/26 04:18:48;;;;;;;9.57;8.60;;;;;;;4.47;100.00;93950.28;5012728;28;20692;-84
2021/04/26 04:21:16;;;;;;;9.20;7.47;;;;;;;4.47;100.00;93941.69;5012425;28;20286;-84
2021/04/26 04:23:43;;;;;;;8.47;7.67;;;;;;;4.43;100.00;93938.59;5012554;28;20249;-84
2021/04/26 04:26:10;;;;;;;11.33;9.97;;;;;;;4.42;100.00;93923.97;5012669;28;20310;-84
2021/04/26 04:28:37;;;;;;;12.77;10.23;;;;;;;4.47;100.00;93919.06;5012616;28;20290;-84
2021/04/26 04:31:04;;;;;;;10.10;8.50;;;;;;;4.54;100.00;93913.97;5012565;28;20252;-83
2021/04/26 04:33:31;;;;;;;8.43;7.40;;;;;;;4.40;100.00;93917.34;5012647;28;20204;-85
2021/04/26 04:35:58;;;;;;;9.53;7.60;;;;;;;4.38;100.00;93909.72;5011197;28;20203;-84
2021/04/26 04:38:26;;;;;;;9.50;8.50;;;;;;;4.55;100.00;93910.38;5012007;28;20279;-84
2021/04/26 04:40:54;;;;;;;10.07;8.13;;;;;;;4.31;100.00;93937.44;5012134;28;20779;-84
2021/04/26 04:43:21;;;;;;;12.90;10.03;;;;;;;4.28;100.00;93925.59;5012175;28;20196;-84
2021/04/26 04:45:49;;;;;;;11.70;10.47;;;;;;;4.51;100.00;93881.31;5014501;28;20318;-84
2021/04/26 04:48:16;;;;;;;14.47;10.60;;;;;;;4.62;100.00;93900.06;5015955;28;20259;-84
2021/04/26 04:50:43;;;;;;;13.53;11.60;;;;;;;4.58;100.00;93956.03;5016098;28;20231;-83
2021/04/26 04:53:10;;;;;;;13.00;11.13;;;;;;;4.55;100.00;93945.97;5016227;28;20222;-84
2021/04/26 04:55:38;;;;;;;10.50;9.33;;;;;;;4.63;100.00;93923.28;5015868;28;20283;-84
2021/04/26 04:58:04;;;;;;;12.63;9.40;;;;;;;4.76;100.00;93894.84;5016199;28;20306;-84
2021/04/26 05:00:31;;;;;;;12.00;10.80;;;;;;;4.94;100.00;93889.25;5016064;28;20286;-83
2021/04/26 05:02:58;;;;;;;14.60;11.70;;;;;;;5.13;100.00;93866.25;5015355;28;20206;-83
2021/04/26 05:05:25;;;;;;;18.13;14.47;;;;;;;5.23;100.00;93843.31;5016064;28;20297;-84
2021/04/26 05:07:52;;;;;;;18.90;15.17;;;;;;;5.20;100.00;93809.81;5015894;28;20203;-84
2021/04/26 05:10:19;;;;;;;37.33;25.67;;;;;;;5.33;100.00;93768.25;5015693;28;20285;-83
2021/04/26 05:12:47;;;;;;;25.30;18.33;;;;;;;5.55;100.00;93768.25;5015253;28;20239;-83
2021/04/26 05:15:15;;;;;;;17.57;13.03;;;;;;;5.72;100.00;93839.94;5015693;28;20783;-83
2021/04/26 05:17:42;;;;;;;12.47;10.67;;;;;;;5.85;100.00;93893.97;5015876;28;20238;-83
2021/04/26 05:20:11;;;;;;;12.03;10.33;;;;;;;6.04;100.00;93937.69;5015515;28;20627;-84
2021/04/26 05:22:39;;;;;;;12.10;9.93;;;;;;;6.11;100.00;94022.00;5015408;28;20195;-82
2021/04/26 05:25:08;;;;;;;12.17;9.63;;;;;;;6.22;100.00;94012.06;5015701;28;20290;-84
2021/04/26 05:27:36;;;;;;;11.30;9.07;;;;;;;6.35;100.00;94059.16;5015868;28;20207;-83
2021/04/26 05:30:05;;;;;;;14.97;10.87;;;;;;;6.58;100.00;94145.91;5015631;28;20206;-83
2021/04/26 05:32:31;;;;;;;14.93;10.60;;;;;;;6.66;100.00;94297.16;5014952;28;20290;-83
2021/04/26 05:34:58;;;;;;;10.00;9.00;;;;;;;6.75;100.00;94410.13;5015029;28;20200;-83
2021/04/26 05:37:25;;;;;;;9.73;8.70;;;;;;;7.08;100.00;94490.75;5015005;28;20200;-83
2021/04/26 05:39:52;;;;;;;8.67;7.10;;;;;;;7.19;100.00;94570.47;5014844;28;20203;-82
2021/04/26 05:42:19;;;;;;;9.73;8.40;;;;;;;7.34;100.00;94613.94;5014856;28;20668;-81
2021/04/26 05:44:46;;;;;;;8.30;7.40;;;;;;;7.58;100.00;94682.63;5014886;28;20242;-81
2021/04/26 05:47:14;;;;;;;8.10;6.77;;;;;;;7.56;100.00;94789.19;5014919;28;20318;-82
2021/04/26 05:49:41;;;;;;;26.10;11.63;;;;;;;7.58;100.00;94869.06;5015269;28;20278;-82
2021/04/26 05:52:07;;;;;;;7.37;5.93;;;;;;;7.80;100.00;94875.28;5015142;28;20290;-83
2021/04/26 05:54:34;;;;;;;5.30;4.77;;;;;;;7.95;100.00;94982.59;5015941;28;20262;-83
2021/04/26 05:57:01;;;;;;;8.90;6.67;;;;;;;8.20;100.00;94988.47;5015550;28;20195;-83
2021/04/26 05:59:28;;;;;;;10.60;6.80;;;;;;;8.26;100.00;95008.72;5015857;28;20283;-83
2021/04/26 06:01:55;;;;;;;7.70;5.90;;;;;;;8.38;100.00;95055.44;5015446;28;20253;-83
2021/04/26 06:04:23;;;;;;;6.50;5.43;;;;;;;8.49;100.00;95095.16;5016406;28;20230;-84
2021/04/26 06:06:50;;;;;;;6.60;6.00;;;;;;;8.75;100.00;95120.97;5015029;28;20274;-83
2021/04/26 06:09:17;;;;;;;9.07;7.03;;;;;;;8.93;100.00;95164.41;5033243;28;20199;-84
2021/04/26 06:11:43;;;;;;;8.90;6.00;;;;;;;9.14;100.00;95175.03;5038449;28;20202;-84
2021/04/26 06:14:10;;;;;;;6.23;5.23;;;;;;;9.28;100.00;95213.63;5034957;28;20221;-83
2021/04/26 06:16:37;;;;;;;8.13;5.13;;;;;;;9.31;100.00;95287.66;5036429;28;20179;-83
2021/04/26 06:19:04;;;;;;;7.10;5.57;;;;;;;9.57;100.00;95319.63;5037145;28;20199;-84
2021/04/26 06:21:32;;;;;;;6.10;5.20;;;;;;;9.70;100.00;95345.28;5036657;28;20263;-83
2021/04/26 06:23:59;;;;;;;9.40;4.37;;;;;;;9.86;100.00;95370.56;5035997;28;20206;-83
2021/04/26 06:26:26;;;;;;;6.17;4.53;;;;;;;9.88;100.00;95395.66;5035995;28;20224;-83
2021/04/26 06:28:53;;;;;;;5.23;4.80;;;;;;;10.10;100.00;95412.38;5037270;28;20230;-83
2021/04/26 06:31:20;;;;;;;6.87;5.20;;;;;;;10.16;100.00;95452.88;5035668;28;20264;-84
2021/04/26 06:33:47;;;;;;;7.03;4.20;;;;;;;10.28;100.00;95505.81;5036097;28;20207;-83
2021/04/26 06:36:13;;;;;;;6.73;4.30;;;;;;;10.55;100.00;95543.88;5036792;28;20192;-83
2021/04/26 06:38:41;;;;;;;4.93;3.90;;;;;;;10.55;100.00;95570.16;5026351;28;20660;-83
2021/04/26 06:41:08;;;;;;;7.27;3.90;;;;;;;10.69;100.00;95583.34;5014215;28;20222;-83
2021/04/26 06:43:35;;;;;;;5.33;4.90;;;;;;;10.68;100.00;95631.66;5014024;28;20575;-83
2021/04/26 06:46:03;;;;;;;6.53;4.20;;;;;;;11.10;100.00;95635.59;5013842;28;20234;-83
2021/04/26 06:48:30;;;;;;;4.93;4.23;;;;;;;11.11;100.00;95686.38;5013616;28;20239;-83
2021/04/26 06:50:57;;;;;;;6.03;4.47;;;;;;;11.27;100.00;95696.78;5013799;28;20211;-84
2021/04/26 06:53:24;;;;;;;5.23;4.17;;;;;;;11.59;100.00;95673.81;5013531;28;20737;-84
2021/04/26 06:55:52;;;;;;;7.37;4.37;;;;;;;11.86;100.00;95717.19;5013816;28;20278;-84
2021/04/26 06:58:19;;;;;;;5.67;5.10;;;;;;;12.07;100.00;95748.09;5014046;28;20206;-84
2021/04/26 07:00:46;;;;;;;7.37;5.77;;;;;;;11.77;100.00;95776.16;5013871;28;20235;-83
2021/04/26 07:03:12;;;;;;;14.20;12.80;;;;;;;12.16;100.00;95761.97;5013570;28;20716;-83
2021/04/26 07:05:39;;;;;;;101.50;61.30;;;;;;;12.58;100.00;95782.44;5014092;28;20231;-83
2021/04/26 07:08:06;;;;;;;23.73;17.77;;;;;;;12.67;100.00;95815.59;5013587;28;20206;-83
2021/04/26 07:10:33;;;;;;;11.83;9.27;;;;;;;13.19;100.00;95830.47;5013811;28;20284;-84
2021/04/26 07:13:01;;;;;;;5.63;4.17;;;;;;;12.99;100.00;95854.00;5013725;28;20608;-84
2021/04/26 07:15:28;;;;;;;5.57;3.57;;;;;;;13.67;100.00;95851.13;5014428;28;20234;-84
2021/04/26 07:17:55;;;;;;;4.10;3.17;;;;;;;13.97;100.00;95896.72;5013853;28;20199;-84
2021/04/26 07:20:22;;;;;;;3.97;3.47;;;;;;;14.13;100.00;95935.28;5015265;28;20207;-83
2021/04/26 07:22:49;;;;;;;3.77;3.00;;;;;;;14.56;100.00;95937.94;5013888;28;20221;-83
2021/04/26 07:25:16;;;;;;;7.03;4.30;;;;;;;14.25;100.00;95937.25;5013611;28;20250;-83
2021/04/26 07:27:43;;;;;;;13.03;10.37;;;;;;;14.54;100.00;95940.75;5012845;28;20234;-83
2021/04/26 07:30:12;;;;;;;7.83;5.37;;;;;;;14.41;100.00;95946.75;5013288;28;20195;-84
2021/04/26 07:32:40;;;;;;;4.40;3.80;;;;;;;13.93;100.00;95946.50;5012517;28;20197;-83
2021/04/26 07:35:11;;;;;;;4.67;4.23;;;;;;;14.21;100.00;95957.13;5013203;28;20230;-84
2021/04/26 07:37:38;;;;;;;4.23;3.77;;;;;;;14.64;100.00;96015.31;5012892;28;20210;-82
2021/04/26 07:40:07;;;;;;;7.67;6.63;;;;;;;15.41;100.00;95976.56;5013428;28;20239;-82
2021/04/26 07:42:34;;;;;;;7.87;5.53;;;;;;;16.01;100.00;95984.81;5012422;28;20659;-82
2021/04/26 07:45:01;;;;;;;4.87;4.23;;;;;;;16.13;100.00;96025.63;5013190;28;20322;-82
2021/04/26 07:47:29;;;;;;;6.07;5.10;;;;;;;16.08;100.00;96038.66;5012397;28;20315;-83
2021/04/26 07:49:56;;;;;;;4.23;3.93;;;;;;;16.27;100.00;96063.59;5012589;28;20234;-83
2021/04/26 07:52:23;;;;;;;9.07;6.40;;;;;;;16.57;100.00;96042.88;5012408;28;20206;-85
2021/04/26 07:54:50;;;;;;;5.93;5.33;;;;;;;16.99;100.00;96035.59;5012900;28;20201;-84
2021/04/26 07:57:17;;;;;;;5.40;5.00;;;;;;;16.69;100.00;95984.72;5012609;28;20604;-84
2021/04/26 07:59:44;;;;;;;8.33;5.07;;;;;;;16.95;100.00;95974.13;5012636;28;20232;-84
2021/04/26 08:02:11;;;;;;;6.40;4.53;;;;;;;17.15;100.00;95975.97;5012447;28;20702;-83
2021/04/26 08:04:38;;;;;;;6.30;5.33;;;;;;;16.59;100.00;95988.59;5012716;28;20258;-84
2021/04/26 08:07:05;;;;;;;6.70;5.00;;;;;;;16.26;100.00;96006.28;5012257;28;20238;-84
2021/04/26 08:09:32;;;;;;;8.67;5.70;;;;;;;16.41;100.00;95991.00;5012281;28;20208;-83
2021/04/26 08:11:59;;;;;;;6.37;5.67;;;;;;;16.64;100.00;95996.75;5012373;28;20300;-83
2021/04/26 08:14:26;;;;;;;8.30;5.67;;;;;;;16.47;100.00;95973.47;5012284;28;20228;-84
2021/04/26 08:16:52;;;;;;;8.37;5.57;;;;;;;17.08;100.00;95965.34;5012607;28;20270;-84
2021/04/26 08:19:19;;;;;;;8.63;6.00;;;;;;;16.88;100.00;96045.00;5011456;28;20200;-84
2021/04/26 08:21:48;;;;;;;9.00;4.90;;;;;;;17.03;100.00;96058.06;5011953;28;20217;-84
2021/04/26 08:24:15;;;;;;;9.33;6.00;;;;;;;17.25;100.00;96070.13;5012303;28;20234;-84
2021/04/26 08:26:42;;;;;;;9.87;3.73;;;;;;;16.85;100.00;96072.75;5012052;28;20230;-83
2021/04/26 08:29:09;;;;;;;6.27;3.83;;;;;;;17.13;100.00;96076.25;5012169;28;20284;-84
2021/04/26 08:31:36;;;;;;;6.30;3.97;;;;;;;16.99;100.00;96137.28;5012087;28;20630;-84
2021/04/26 08:34:03;;;;;;;6.60;4.13;;;;;;;16.89;100.00;96097.06;5012039;28;20255;-84
2021/04/26 08:36:30;;;;;;;5.03;3.83;;;;;;;17.05;100.00;96127.72;5012113;28;20289;-84
2021/04/26 08:38:59;;;;;;;3.53;3.20;;;;;;;16.90;100.00;96119.91;5011965;28;20231;-83
2021/04/26 08:41:26;;;;;;;4.57;3.53;;;;;;;16.60;100.00;96119.44;5011997;28;20292;-83
2021/04/26 08:43:53;;;;;;;6.93;3.93;;;;;;;16.21;100.00;96138.63;5011985;28;20711;-85
2021/04/26 08:46:20;;;;;;;4.43;3.53;;;;;;;16.21;100.00;96149.25;5012298;28;20266;-83
2021/04/26 08:48:47;;;;;;;5.40;4.27;;;;;;;16.67;100.00;96122.91;5012037;28;20276;-83
2021/04/26 08:51:14;;;;;;;6.10;4.10;;;;;;;16.98;100.00;96156.91;5011925;28;20201;-84
2021/04/26 08:53:41;;;;;;;3.77;3.47;;;;;;;16.87;100.00;96150.34;5012039;28;20670;-84
2021/04/26 08:56:09;;;;;;;5.07;4.17;;;;;;;17.10;100.00;96154.47;5012029;28;20203;-84
2021/04/26 08:58:37;;;;;;;4.43;3.67;;;;;;;16.85;100.00;96183.41;5014045;28;20234;-85
2021/04/26 09:01:05;;;;;;;4.73;3.73;;;;;;;17.37;100.00;96168.59;5012146;28;20577;-85
2021/04/26 09:03:33;;;;;;;5.80;3.57;;;;;;;17.56;100.00;96185.56;5011898;28;20206;-85
2021/04/26 09:06:00;;;;;;;5.83;3.90;;;;;;;17.79;100.00;96191.31;5011943;28;20229;-85
2021/04/26 09:08:28;;;;;;;8.13;3.70;;;;;;;17.39;100.00;96194.94;5011586;28;20202;-84
2021/04/26 09:11:03;;;;;;;5.50;3.73;;;;;;;16.86;100.00;96179.75;5012564;28;20193;-87
2021/04/26 09:13:39;;;;;;;6.83;3.63;;;;;;;17.39;100.00;96181.66;5012352;28;20238;-83
2021/04/26 09:16:07;;;;;;;4.97;3.53;;;;;;;17.31;100.00;96247.25;5011725;28;20570;-83
2021/04/26 09:18:53;;;;;;;6.47;3.23;;;;;;;17.82;100.00;96281.31;5011604;28;20261;-83
2021/04/26 09:21:24;;;;;;;7.07;3.97;;;;;;;17.90;100.00;96199.69;5012131;28;20621;-84
2021/04/26 09:24:10;;;;;;;4.00;3.60;;;;;;;17.72;100.00;96233.00;5011352;28;20229;-83
2021/04/26 09:26:38;;;;;;;4.80;3.20;;;;;;;18.40;100.00;96200.84;5012094;28;20698;-83
2021/04/26 09:29:18;;;;;;;5.00;4.07;;;;;;;18.45;100.00;96222.31;5011924;28;20239;-84
2021/04/26 09:32:01;;;;;;;5.33;4.37;;;;;;;18.26;100.00;96205.38;5013719;28;20197;-83
2021/04/26 09:34:33;;;;;;;5.57;4.00;;;;;;;18.28;100.00;96248.53;5015362;28;20190;-84
2021/04/26 09:37:10;;;;;;;5.17;4.00;;;;;;;18.12;100.00;96209.09;5015378;28;20234;-83
2021/04/26 09:40:05;;;;;;;7.13;3.67;;;;;;;18.55;100.00;96216.53;5015158;28;20218;-84
2021/04/26 09:42:42;;;;;;;4.97;3.73;;;;;;;18.11;100.00;96199.47;5015135;28;20184;-83
2021/04/26 09:45:30;;;;;;;4.07;3.53;;;;;;;18.52;100.00;96208.97;5015296;28;20266;-84
2021/04/26 09:48:13;;;;;;;4.27;3.60;;;;;;;18.70;100.00;96202.97;5015401;28;20266;-83
2021/04/26 09:50:54;;;;;;;5.30;4.50;;;;;;;18.64;100.00;96143.44;5014843;28;20227;-83
2021/04/26 09:53:22;;;;;;;5.63;4.13;;;;;;;18.14;100.00;96168.97;5015047;28;20289;-84
2021/04/26 09:55:50;;;;;;;6.33;4.50;;;;;;;18.27;100.00;96175.06;5015138;28;20618;-83
2021/04/26 09:58:17;;;;;;;4.70;4.10;;;;;;;18.15;100.00;96173.25;5014492;28;20297;-84
2021/04/26 10:00:46;;;;;;;5.37;4.20;;;;;;;18.09;100.00;96177.59;5014638;28;20250;-84
2021/04/26 10:03:14;;;;;;;4.20;3.80;;;;;;;17.99;100.00;96195.81;5014457;28;20203;-83
2021/04/26 10:05:43;;;;;;;6.30;4.23;;;;;;;17.70;100.00;96203.16;5014477;28;20727;-83
2021/04/26 10:08:11;;;;;;;4.33;3.80;;;;;;;17.77;100.00;96211.19;5014687;28;20285;-84
2021/04/26 10:10:40;;;;;;;4.23;3.83;;;;;;;17.79;100.00;96214.44;5014350;28;20687;-83
2021/04/26 10:13:07;;;;;;;4.17;3.73;;;;;;;17.80;100.00;96216.06;5014375;28;20324;-83
2021/04/26 10:15:36;;;;;;;4.10;3.53;;;;;;;18.48;100.00;96213.91;5014665;28;20211;-83
2021/04/26 10:18:06;;;;;;;5.00;3.87;;;;;;;18.76;100.00;96187.00;5014122;28;20593;-84
2021/04/26 10:20:36;;;;;;;3.80;3.33;;;;;;;18.85;100.00;96234.72;5014254;28;20334;-83
2021/04/26 10:23:03;;;;;;;4.03;2.97;;;;;;;18.81;100.00;96255.63;5014013;28;20206;-84
2021/04/26 10:25:41;;;;;;;3.20;2.80;;;;;;;18.68;100.00;96231.66;5013990;28;20235;-84
2021/04/26 10:28:32;;;;;;;5.03;3.60;;;;;;;17.96;100.00;96236.09;5013741;28;20719;-83
2021/04/26 10:31:01;;;;;;;4.77;3.57;;;;;;;18.41;100.00;96215.78;4999518;28;20245;-83
2021/04/26 10:33:52;;;;;;;3.73;3.30;;;;;;;18.50;100.00;96208.38;5013995;28;20601;-84
2021/04/26 10:36:46;;;;;;;5.30;3.90;;;;;;;18.79;100.00;96199.09;5013414;28;20203;-84
2021/04/26 10:39:14;;;;;;;6.00;3.27;;;;;;;18.73;100.00;96235.34;5014182;28;20207;-84
2021/04/26 10:42:03;;;;;;;6.00;3.83;;;;;;;18.26;100.00;96213.34;5013437;28;20206;-83
2021/04/26 10:44:54;;;;;;;3.93;2.77;;;;;;;18.28;100.00;96216.59;5013909;28;20199;-84
2021/04/26 10:47:32;;;;;;;3.60;3.30;;;;;;;19.06;100.00;96213.09;5013588;28;20211;-84
2021/04/26 10:50:29;;;;;;;3.37;3.07;;;;;;;18.61;100.00;96221.03;5013812;28;20283;-84
2021/04/26 10:52:59;;;;;;;4.47;3.27;;;;;;;18.78;100.00;96213.44;5013669;28;20748;-84
2021/04/26 10:55:50;;;;;;;6.70;3.90;;;;;;;18.96;100.00;96218.06;5014176;28;20210;-84
2021/04/26 10:58:40;;;;;;;5.83;3.40;;;;;;;18.98;100.00;96206.19;4994772;28;20286;-84
2021/04/26 11:01:09;;;;;;;3.67;3.37;;;;;;;19.22;100.00;96212.59;5014105;28;20184;-84
2021/04/26 11:03:40;;;;;;;3.73;3.40;;;;;;;18.88;100.00;96218.31;5013764;28;20254;-83
2021/04/26 11:06:21;;;;;;;3.63;3.37;;;;;;;18.64;100.00;96235.78;5013647;28;20262;-84
2021/04/26 11:09:06;;;;;;;3.90;3.50;;;;;;;18.70;100.00;96230.44;5013317;28;20710;-84
2021/04/26 11:11:44;;;;;;;5.10;3.73;;;;;;;18.76;100.00;96239.44;5013526;28;20202;-84
2021/04/26 11:14:23;;;;;;;6.10;4.27;;;;;;;19.10;100.00;96242.78;5013544;28;20292;-84
2021/04/26 11:16:56;;;;;;;4.53;3.43;;;;;;;18.77;100.00;96278.34;5013171;28;20184;-84
2021/04/26 11:19:23;;;;;;;4.27;3.87;;;;;;;18.57;100.00;96240.31;5013332;28;20214;-84
2021/04/26 11:21:58;;;;;;;5.73;3.23;;;;;;;18.83;100.00;96261.53;5013156;28;20282;-84
2021/04/26 11:25:08;;;;;;;4.33;3.47;;;;;;;18.34;100.00;96251.41;5013124;28;20249;-84
2021/04/26 11:27:40;;;;;;;3.17;2.87;;;;;;;18.53;100.00;96261.19;5012861;28;20313;-85
2021/04/26 11:30:19;;;;;;;5.10;3.67;;;;;;;18.60;100.00;96251.34;5013181;28;20198;-85
2021/04/26 11:33:00;;;;;;;5.43;3.30;;;;;;;18.52;100.00;96254.22;5012866;28;20286;-84
2021/04/26 11:35:27;;;;;;;3.70;3.40;;;;;;;18.79;100.00;96252.34;5013051;28;20191;-84
2021/04/26 11:37:56;;;;;;;4.10;3.20;;;;;;;19.09;100.00;96263.28;5012876;28;20291;-85
2021/04/26 11:40:25;;;;;;;5.00;3.50;;;;;;;19.04;100.00;96275.59;5012876;28;20250;-84